Time;durP1;ratioP1;P1;durP2;ratioP2;P2;SDS_P1;SDS_P2;PMS_P1;PMS_P2;Temp;Humidity;BMP_temperature;BMP_pressure;BME280_temperature;BME280_humidity;BME280_pressure;Samples;Min_cycle;Max_cycle;Signal;HPM_P1;HPM_P2
2023/05/08 00:01:09;;;;;;;54.50;33.17;;;;;14.30;101482.00;;;;9941234;29;20804;-75
2023/05/08 00:06:11;;;;;;;46.60;32.30;;;;;14.30;101486.00;;;;9927501;29;20316;-76
2023/05/08 00:11:12;;;;;;;53.87;33.37;;;;;14.40;101492.00;;;;9941770;29;20247;-76
2023/05/08 00:16:14;;;;;;;47.43;31.57;;;;;14.50;101486.00;;;;9925906;29;20336;-77
2023/05/08 00:21:15;;;;;;;43.67;30.23;;;;;14.40;101484.00;;;;9942694;29;20457;-77
2023/05/08 00:26:17;;;;;;;49.23;30.43;;;;;14.40;101479.00;;;;9924577;29;20248;-76
2023/05/08 00:31:18;;;;;;;41.20;28.90;;;;;14.30;101483.00;;;;9932939;29;20696;-76
2023/05/08 00:36:20;;;;;;;45.53;30.27;;;;;14.20;101485.00;;;;9915944;29;20316;-77
2023/05/08 00:41:21;;;;;;;57.70;32.90;;;;;14.10;101485.00;;;;9914398;29;20740;-76
2023/05/08 00:46:23;;;;;;;53.20;31.38;;;;;14.00;101480.00;;;;9932308;29;20256;-76
2023/05/08 00:51:26;;;;;;;45.93;31.20;;;;;13.90;101495.00;;;;9901921;29;20248;-78
2023/05/08 00:56:31;;;;;;;46.17;30.53;;;;;13.70;101483.00;;;;9936450;29;20615;-78
2023/05/08 01:01:35;;;;;;;44.83;28.77;;;;;13.60;101472.00;;;;9934902;29;20229;-78
2023/05/08 01:06:37;;;;;;;48.27;32.90;;;;;13.50;101481.00;;;;9935453;29;21845;-75
2023/05/08 01:11:38;;;;;;;48.07;32.07;;;;;13.40;101484.00;;;;9932443;29;20217;-77
2023/05/08 01:17:02;;;;;;;52.83;33.27;;;;;13.40;101493.00;;;;9914474;29;20956;-76
2023/05/08 01:22:48;;;;;;;57.13;34.53;;;;;13.40;101495.00;;;;9912001;29;20218;-76
2023/05/08 01:28:08;;;;;;;68.23;39.43;;;;;13.50;101499.00;;;;9915623;29;20259;-81
2023/05/08 01:33:19;;;;;;;77.33;43.27;;;;;13.60;101499.00;;;;9924121;29;20221;-75
2023/05/08 01:38:29;;;;;;;86.90;47.87;;;;;13.80;101497.00;;;;9902950;29;20225;-76
2023/05/08 01:43:52;;;;;;;77.83;45.07;;;;;13.90;101493.00;;;;9901149;29;20290;-77
2023/05/08 01:49:21;;;;;;;90.87;43.93;;;;;13.90;101501.00;;;;9939080;29;20233;-80
2023/05/08 01:54:25;;;;;;;81.90;46.17;;;;;14.00;101505.00;;;;9918731;29;20252;-80
2023/05/08 01:59:30;;;;;;;93.23;48.13;;;;;13.90;101496.00;;;;9950925;29;21169;-80
2023/05/08 02:04:33;;;;;;;89.00;47.80;;;;;13.90;101499.00;;;;9931626;29;20237;-76
2023/05/08 02:09:36;;;;;;;88.23;45.17;;;;;13.70;101504.00;;;;9911355;29;20232;-76
2023/05/08 02:14:40;;;;;;;97.30;51.17;;;;;13.60;101509.00;;;;9914545;29;20257;-76
2023/05/08 02:19:43;;;;;;;97.27;51.67;;;;;13.50;101504.00;;;;9932636;29;20946;-76
2023/05/08 02:24:45;;;;;;;103.57;53.23;;;;;13.40;101517.00;;;;9932697;29;21467;-78
2023/05/08 02:29:48;;;;;;;110.17;53.93;;;;;13.40;101519.00;;;;9934587;29;20636;-77
2023/05/08 02:34:51;;;;;;;110.93;55.03;;;;;13.50;101510.00;;;;9929537;29;20613;-76
2023/05/08 02:40:07;;;;;;;115.70;57.90;;;;;13.60;101517.00;;;;9950284;29;20518;-76
2023/05/08 02:45:11;;;;;;;122.27;62.17;;;;;13.60;101517.00;;;;9970219;29;20233;-77
2023/05/08 02:50:19;;;;;;;133.20;64.63;;;;;13.60;101510.00;;;;9918730;29;20358;-76
2023/05/08 02:55:28;;;;;;;145.30;66.37;;;;;13.60;101512.00;;;;9948635;29;20228;-78
2023/05/08 03:01:07;;;;;;;153.30;69.33;;;;;13.60;101510.00;;;;9956831;29;20864;-80
2023/05/08 03:06:14;;;;;;;150.80;65.83;;;;;13.60;101515.00;;;;9975651;29;21121;-77
2023/05/08 03:11:21;;;;;;;159.30;67.03;;;;;13.60;101509.00;;;;9969481;29;20584;-75
2023/05/08 03:16:26;;;;;;;165.17;65.93;;;;;13.50;101513.00;;;;9948442;29;20228;-76
2023/05/08 03:21:29;;;;;;;160.17;66.07;;;;;13.40;101520.00;;;;9966984;29;20841;-80
2023/05/08 03:26:32;;;;;;;166.33;67.00;;;;;13.40;101513.00;;;;9984918;29;21924;-81
2023/05/08 03:31:35;;;;;;;176.43;69.57;;;;;13.40;101522.00;;;;9974287;29;20750;-81
2023/05/08 03:36:37;;;;;;;171.93;67.80;;;;;13.40;101524.00;;;;9970809;29;20599;-76
2023/05/08 03:41:39;;;;;;;185.80;71.07;;;;;13.40;101519.00;;;;9966657;29;20626;-76
2023/05/08 03:46:41;;;;;;;194.30;72.17;;;;;13.40;101513.00;;;;9963760;29;20328;-76
2023/05/08 03:51:43;;;;;;;184.17;67.40;;;;;13.40;101515.00;;;;9945580;29;20224;-76
2023/05/08 03:56:46;;;;;;;182.67;70.37;;;;;13.40;101506.00;;;;9962274;29;20641;-76
2023/05/08 04:01:57;;;;;;;200.03;72.50;;;;;13.40;101499.00;;;;9954271;29;20313;-79
2023/05/08 04:07:08;;;;;;;202.20;71.37;;;;;13.40;101507.00;;;;9960581;29;20252;-76
2023/05/08 04:12:20;;;;;;;167.80;66.20;;;;;13.40;101514.00;;;;9946711;29;20227;-77
2023/05/08 04:17:46;;;;;;;176.00;67.53;;;;;13.40;101520.00;;;;9958696;29;20233;-80
2023/05/08 04:22:51;;;;;;;192.00;70.47;;;;;13.50;101516.00;;;;9957879;29;20232;-77
2023/05/08 04:27:54;;;;;;;175.20;66.17;;;;;13.50;101516.00;;;;9966410;29;20351;-77
2023/05/08 04:32:58;;;;;;;165.10;66.60;;;;;13.50;101521.00;;;;9965404;29;20608;-76
2023/05/08 04:38:01;;;;;;;164.33;63.43;;;;;13.50;101521.00;;;;9972195;29;20232;-80
2023/05/08 04:43:03;;;;;;;155.03;59.73;;;;;13.50;101527.00;;;;9972154;29;20232;-76
2023/05/08 04:48:04;;;;;;;161.70;59.77;;;;;13.50;101530.00;;;;9935322;29;20626;-77
2023/05/08 04:53:06;;;;;;;170.17;66.37;;;;;13.50;101530.00;;;;9954084;29;20253;-77
2023/05/08 04:58:12;;;;;;;176.23;62.87;;;;;13.50;101541.00;;;;9952282;29;20216;-76
2023/05/08 05:03:13;;;;;;;168.87;64.70;;;;;13.60;101542.00;;;;9949929;29;20316;-76
2023/05/08 05:08:15;;;;;;;203.37;74.53;;;;;13.70;101552.00;;;;9956481;29;20918;-79
2023/05/08 05:13:17;;;;;;;220.33;75.03;;;;;13.80;101555.00;;;;9959364;29;20228;-78
2023/05/08 05:18:19;;;;;;;227.33;76.80;;;;;13.90;101560.00;;;;9959443;29;20250;-77
2023/05/08 05:23:22;;;;;;;242.43;80.70;;;;;14.10;101565.00;;;;9967361;29;20243;-79
2023/05/08 05:28:24;;;;;;;225.93;70.43;;;;;14.20;101575.00;;;;9978854;29;20870;-78
2023/05/08 05:33:26;;;;;;;214.87;75.87;;;;;14.20;101588.00;;;;9985055;29;21578;-81
2023/05/08 05:38:28;;;;;;;203.23;71.87;;;;;14.20;101593.00;;;;9963381;29;20676;-79
2023/05/08 05:43:29;;;;;;;208.13;68.13;;;;;14.10;101595.00;;;;9959899;29;20726;-79
2023/05/08 05:48:31;;;;;;;214.27;77.30;;;;;14.20;101598.00;;;;9962021;29;20244;-79
2023/05/08 05:53:32;;;;;;;222.67;75.30;;;;;14.20;101604.00;;;;9958511;29;20347;-79
2023/05/08 05:58:34;;;;;;;221.87;78.83;;;;;14.30;101604.00;;;;9973323;29;20295;-78
2023/05/08 06:03:36;;;;;;;235.70;75.63;;;;;14.30;101612.00;;;;9966202;29;20552;-76
2023/05/08 06:08:38;;;;;;;208.47;70.17;;;;;14.30;101604.00;;;;9952234;29;20519;-77
2023/05/08 06:13:40;;;;;;;208.57;70.57;;;;;14.50;101601.00;;;;9966039;29;20834;-77
2023/05/08 06:18:41;;;;;;;218.07;76.38;;;;;14.60;101613.00;;;;9950711;29;20225;-77
2023/05/08 06:23:43;;;;;;;228.27;76.95;;;;;14.80;101612.00;;;;9959314;29;20320;-77
2023/05/08 06:28:45;;;;;;;220.45;73.18;;;;;14.80;101608.00;;;;9981773;29;20628;-79
2023/05/08 06:33:46;;;;;;;222.75;76.35;;;;;14.90;101605.00;;;;9962088;29;20223;-76
2023/05/08 06:38:47;;;;;;;228.30;78.20;;;;;14.80;101609.00;;;;9970261;29;20288;-77
2023/05/08 06:43:49;;;;;;;228.45;78.38;;;;;14.90;101597.00;;;;9966934;29;20266;-76
2023/05/08 06:48:50;;;;;;;210.50;72.97;;;;;15.30;101599.00;;;;9965438;29;20253;-76
2023/05/08 06:53:51;;;;;;;234.48;83.03;;;;;15.70;101594.00;;;;9969863;29;20671;-78
2023/05/08 06:58:53;;;;;;;231.23;79.07;;;;;16.20;101602.00;;;;9970381;29;20236;-77
2023/05/08 07:04:08;;;;;;;219.60;73.47;;;;;16.90;101593.00;;;;9961215;29;20478;-77
2023/05/08 07:09:10;;;;;;;209.23;70.90;;;;;17.80;101589.00;;;;9972273;29;20469;-78
2023/05/08 07:14:12;;;;;;;183.13;71.68;;;;;18.00;101597.00;;;;9975671;29;21552;-77
2023/05/08 07:19:13;;;;;;;185.52;73.28;;;;;17.70;101604.00;;;;9974182;29;20507;-77
2023/05/08 07:24:14;;;;;;;187.63;71.30;;;;;17.50;101607.00;;;;9950402;29;20899;-76
2023/05/08 07:29:15;;;;;;;179.70;66.80;;;;;17.30;101619.00;;;;9948031;29;20220;-76
2023/05/08 07:34:17;;;;;;;153.05;59.50;;;;;16.90;101618.00;;;;9946054;29;20243;-76
2023/05/08 07:39:19;;;;;;;167.25;63.35;;;;;16.60;101625.00;;;;9981487;29;20438;-81
2023/05/08 07:44:20;;;;;;;175.27;65.88;;;;;16.60;101625.00;;;;9936968;29;20236;-75
2023/05/08 07:49:21;;;;;;;202.30;70.32;;;;;16.70;101628.00;;;;9960669;29;20224;-77
2023/05/08 07:54:23;;;;;;;174.15;64.60;;;;;17.00;101622.00;;;;9967184;29;20960;-77
2023/05/08 07:59:24;;;;;;;180.90;66.85;;;;;16.90;101625.00;;;;9970903;29;20323;-78
2023/05/08 08:04:26;;;;;;;144.20;57.00;;;;;16.90;101630.00;;;;9949595;29;20236;-76
2023/05/08 08:09:28;;;;;;;149.05;56.38;;;;;16.80;101633.00;;;;9957431;29;20304;-79
2023/05/08 08:14:29;;;;;;;158.40;57.97;;;;;16.60;101640.00;;;;9990393;29;20220;-80
2023/05/08 08:19:31;;;;;;;140.43;53.55;;;;;16.50;101642.00;;;;9975545;29;21097;-80
2023/05/08 08:24:32;;;;;;;121.38;53.90;;;;;16.50;101637.00;;;;9962502;29;20324;-76
2023/05/08 08:29:33;;;;;;;131.98;54.35;;;;;16.70;101637.00;;;;9978210;29;20292;-78
2023/05/08 08:34:35;;;;;;;141.43;55.08;;;;;17.00;101632.00;;;;9975734;29;20228;-77
2023/05/08 08:39:36;;;;;;;142.20;58.47;;;;;17.20;101629.00;;;;9983079;29;20280;-81
2023/05/08 08:44:38;;;;;;;128.85;56.20;;;;;18.00;101618.00;;;;9989079;29;20224;-80
2023/05/08 08:49:47;;;;;;;122.30;55.90;;;;;18.60;101609.00;;;;9960268;29;22133;-77
2023/05/08 08:54:50;;;;;;;118.78;55.30;;;;;18.60;101622.00;;;;9975032;29;21198;-78
2023/05/08 08:59:52;;;;;;;115.20;54.83;;;;;18.60;101628.00;;;;9975107;29;20366;-78
2023/05/08 09:04:54;;;;;;;126.65;59.20;;;;;18.90;101628.00;;;;9957457;29;20714;-78
2023/05/08 09:09:56;;;;;;;112.60;54.03;;;;;19.90;101621.00;;;;9971889;29;20221;-76
2023/05/08 09:14:57;;;;;;;95.95;50.17;;;;;20.50;101614.00;;;;9988152;29;20236;-81
2023/05/08 09:19:59;;;;;;;103.32;49.85;;;;;20.50;101612.00;;;;9954026;29;20216;-77
2023/05/08 09:25:02;;;;;;;90.75;46.85;;;;;20.10;101608.00;;;;9930629;29;20232;-78
2023/05/08 09:30:05;;;;;;;81.82;44.50;;;;;19.80;101615.00;;;;9975173;29;21352;-78
2023/05/08 09:35:10;;;;;;;68.45;37.53;;;;;20.30;101606.00;;;;9986017;29;20587;-79
2023/05/08 09:40:14;;;;;;;52.83;32.72;;;;;21.40;101612.00;;;;9972952;29;20699;-82
2023/05/08 09:45:27;;;;;;;45.80;29.95;;;;;21.90;101606.00;;;;9987203;29;20361;-81
2023/05/08 09:50:30;;;;;;;48.20;31.42;;;;;22.00;101598.00;;;;9988766;29;20231;-78
2023/05/08 09:55:46;;;;;;;51.78;32.15;;;;;22.90;101591.00;;;;9971825;29;20319;-78
2023/05/08 10:00:47;;;;;;;43.95;27.75;;;;;23.20;101597.00;;;;9971655;29;20573;-77
2023/05/08 10:05:50;;;;;;;47.08;29.35;;;;;23.30;101601.00;;;;9939981;29;20239;-78
2023/05/08 10:10:52;;;;;;;47.33;30.67;;;;;24.10;101602.00;;;;9972358;29;20323;-79
2023/05/08 10:15:53;;;;;;;56.30;32.10;;;;;24.90;101601.00;;;;9956717;29;20212;-78
2023/05/08 10:21:01;;;;;;;47.20;28.38;;;;;25.60;101600.00;;;;9978903;29;20686;-77
2023/05/08 10:26:10;;;;;;;39.25;25.95;;;;;25.00;101601.00;;;;9952969;29;20348;-79
2023/05/08 10:31:16;;;;;;;36.42;22.95;;;;;26.30;101597.00;;;;9965808;29;20812;-79
2023/05/08 10:36:19;;;;;;;35.25;23.25;;;;;27.50;101591.00;;;;9973002;29;20219;-80
2023/05/08 10:41:22;;;;;;;39.10;24.45;;;;;26.60;101594.00;;;;9982867;29;21150;-77
2023/05/08 10:46:42;;;;;;;34.60;22.88;;;;;27.50;101581.00;;;;9972776;29;20250;-76
2023/05/08 10:51:59;;;;;;;34.50;21.67;;;;;28.00;101578.00;;;;9969736;29;20255;-77
2023/05/08 10:57:11;;;;;;;29.75;21.63;;;;;27.80;101581.00;;;;9968320;29;20385;-76
2023/05/08 11:02:14;;;;;;;36.45;24.25;;;;;27.00;101569.00;;;;9955797;29;21901;-77
2023/05/08 11:07:15;;;;;;;36.05;25.00;;;;;27.20;101565.00;;;;9950836;29;20236;-76
2023/05/08 11:12:24;;;;;;;34.88;24.65;;;;;27.50;101568.00;;;;9974311;29;21574;-83
2023/05/08 11:17:26;;;;;;;34.15;24.23;;;;;27.50;101570.00;;;;9990039;29;20276;-80
2023/05/08 11:22:31;;;;;;;30.65;23.42;;;;;27.40;101560.00;;;;9970924;29;20232;-82
2023/05/08 11:27:48;;;;;;;28.52;20.05;;;;;27.20;101569.00;;;;9981264;29;20243;-81
2023/05/08 11:33:05;;;;;;;24.63;18.90;;;;;26.40;101572.00;;;;9983778;29;20323;-81
2023/05/08 11:38:14;;;;;;;25.05;17.27;;;;;25.90;101564.00;;;;9963433;29;20227;-81
2023/05/08 11:43:31;;;;;;;20.10;15.32;;;;;26.50;101564.00;;;;10006617;29;20215;-81
2023/05/08 11:48:34;;;;;;;21.40;14.77;;;;;26.70;101562.00;;;;10002809;29;20315;-82
2023/05/08 11:53:36;;;;;;;21.95;13.85;;;;;26.80;101549.00;;;;10001554;29;20227;-81
2023/05/08 11:58:38;;;;;;;15.82;11.93;;;;;26.60;101552.00;;;;10002062;29;21009;-81
2023/05/08 12:03:39;;;;;;;15.43;10.80;;;;;25.70;101540.00;;;;10004525;29;20217;-81
2023/05/08 12:08:41;;;;;;;19.38;14.15;;;;;25.70;101543.00;;;;9999866;29;20248;-79
2023/05/08 12:13:55;;;;;;;17.33;12.95;;;;;26.10;101542.00;;;;9975154;29;20308;-81
2023/05/08 12:18:56;;;;;;;19.92;12.60;;;;;25.80;101534.00;;;;10003861;29;21229;-80
2023/05/08 12:23:59;;;;;;;16.20;12.23;;;;;27.10;101531.00;;;;9990290;29;20312;-80
2023/05/08 12:29:00;;;;;;;17.23;13.02;;;;;27.20;101526.00;;;;10001849;29;20240;-80
2023/05/08 12:34:05;;;;;;;16.98;13.52;;;;;28.50;101527.00;;;;10000461;29;20232;-81
2023/05/08 12:39:10;;;;;;;17.98;13.60;;;;;27.80;101520.00;;;;9995473;29;20220;-80
2023/05/08 12:44:22;;;;;;;18.05;13.77;;;;;28.80;101520.00;;;;9992633;29;20224;-80
2023/05/08 12:49:31;;;;;;;18.65;14.18;;;;;28.20;101517.00;;;;9999687;29;20231;-81
2023/05/08 12:54:33;;;;;;;22.80;16.20;;;;;27.20;101518.00;;;;9992163;29;20228;-79
2023/05/08 12:59:35;;;;;;;21.35;15.13;;;;;26.10;101514.00;;;;9967784;29;21605;-80
2023/05/08 13:04:37;;;;;;;21.33;14.90;;;;;26.00;101516.00;;;;10001657;29;20237;-80
2023/05/08 13:09:39;;;;;;;18.38;14.50;;;;;26.10;101504.00;;;;9996654;29;20264;-79
2023/05/08 13:14:40;;;;;;;22.65;14.82;;;;;26.50;101500.00;;;;9994045;29;20229;-79
2023/05/08 13:19:42;;;;;;;22.95;15.77;;;;;26.90;101502.00;;;;9989497;29;20231;-83
2023/05/08 13:24:43;;;;;;;24.77;18.83;;;;;26.40;101508.00;;;;9980957;29;20236;-80
2023/05/08 13:29:45;;;;;;;25.00;18.23;;;;;25.80;101500.00;;;;10001654;29;20290;-80
2023/05/08 13:34:46;;;;;;;28.75;19.65;;;;;25.60;101500.00;;;;9989907;29;20225;-81
2023/05/08 13:39:52;;;;;;;33.75;20.65;;;;;25.20;101495.00;;;;9979019;29;20320;-81
2023/05/08 13:44:53;;;;;;;34.08;22.25;;;;;25.00;101492.00;;;;9998717;29;20244;-81
2023/05/08 13:49:55;;;;;;;32.17;18.98;;;;;25.00;101490.00;;;;9975692;29;20227;-81
2023/05/08 13:54:57;;;;;;;29.13;17.73;;;;;24.90;101488.00;;;;9995099;29;20231;-82
2023/05/08 13:59:58;;;;;;;35.17;21.50;;;;;24.00;101482.00;;;;9996475;29;20300;-81
2023/05/08 14:05:00;;;;;;;30.58;17.58;;;;;23.70;101482.00;;;;9994447;29;20237;-80
2023/05/08 14:10:01;;;;;;;28.38;15.70;;;;;23.40;101485.00;;;;9995410;29;21199;-81
2023/05/08 14:15:04;;;;;;;25.30;15.02;;;;;23.00;101490.00;;;;9997149;29;21543;-80
2023/05/08 14:20:05;;;;;;;23.50;14.50;;;;;22.80;101494.00;;;;9991005;29;20257;-81
2023/05/08 14:25:08;;;;;;;18.33;13.02;;;;;23.10;101492.00;;;;9997361;29;20236;-81
2023/05/08 14:30:10;;;;;;;20.30;14.65;;;;;23.80;101486.00;;;;9999599;29;20819;-81
2023/05/08 14:35:12;;;;;;;18.58;13.98;;;;;24.30;101486.00;;;;9998076;29;20864;-82
2023/05/08 14:40:14;;;;;;;24.77;16.55;;;;;24.60;101482.00;;;;9986689;29;20220;-82
2023/05/08 14:45:15;;;;;;;27.92;18.52;;;;;25.30;101485.00;;;;9984856;29;21746;-80
2023/05/08 14:50:17;;;;;;;26.52;19.08;;;;;25.90;101480.00;;;;9993508;29;20244;-79
2023/05/08 14:55:19;;;;;;;23.98;17.10;;;;;26.00;101483.00;;;;9972044;29;21807;-79
2023/05/08 15:00:22;;;;;;;23.15;15.75;;;;;25.50;101485.00;;;;9988666;29;20232;-81
2023/05/08 15:05:23;;;;;;;17.90;14.30;;;;;24.80;101488.00;;;;9998790;29;20527;-78
2023/05/08 15:10:25;;;;;;;21.10;15.10;;;;;24.40;101475.00;;;;9978740;29;21894;-77
2023/05/08 15:15:26;;;;;;;23.88;15.25;;;;;24.30;101472.00;;;;9993512;29;20221;-77
2023/05/08 15:20:28;;;;;;;17.67;13.23;;;;;24.10;101490.00;;;;9988873;29;20334;-75
2023/05/08 15:25:30;;;;;;;14.25;11.75;;;;;23.30;101491.00;;;;9971140;29;20229;-77
2023/05/08 15:30:31;;;;;;;21.90;12.55;;;;;22.70;101486.00;;;;9978856;29;20227;-76
2023/05/08 15:35:32;;;;;;;19.75;14.35;;;;;22.20;101485.00;;;;9971556;29;20275;-77
2023/05/08 15:40:34;;;;;;;16.73;13.10;;;;;21.90;101490.00;;;;9984362;29;21028;-76
2023/05/08 15:45:35;;;;;;;16.45;12.43;;;;;21.80;101479.00;;;;9980024;29;20328;-77
2023/05/08 15:50:37;;;;;;;14.15;10.75;;;;;21.60;101489.00;;;;9985243;29;20228;-77
2023/05/08 15:55:38;;;;;;;13.32;10.40;;;;;21.60;101496.00;;;;9985190;29;20225;-77
2023/05/08 16:00:39;;;;;;;14.57;9.55;;;;;21.70;101503.00;;;;9961985;29;21837;-77
2023/05/08 16:05:46;;;;;;;13.55;8.48;;;;;21.10;101505.00;;;;9972160;29;20874;-82
2023/05/08 16:10:48;;;;;;;12.98;8.82;;;;;21.20;101498.00;;;;9960792;29;20936;-82
2023/05/08 16:15:49;;;;;;;10.68;8.52;;;;;21.10;101510.00;;;;9978360;29;20599;-80
2023/05/08 16:20:50;;;;;;;10.73;8.82;;;;;20.70;101516.00;;;;9976200;29;20311;-80
2023/05/08 16:25:52;;;;;;;10.82;9.07;;;;;20.80;101509.00;;;;9994415;29;20237;-81
2023/05/08 16:30:53;;;;;;;14.10;9.63;;;;;20.80;101502.00;;;;9979641;29;20228;-82
2023/05/08 16:35:54;;;;;;;13.10;10.18;;;;;20.60;101496.00;;;;10000164;29;20225;-81
2023/05/08 16:41:13;;;;;;;11.88;9.80;;;;;21.00;101489.00;;;;9998078;29;20248;-81
2023/05/08 16:46:15;;;;;;;13.73;9.85;;;;;20.80;101488.00;;;;9981386;29;21257;-82
2023/05/08 16:51:18;;;;;;;14.85;9.75;;;;;20.80;101490.00;;;;9967184;29;20337;-81
2023/05/08 16:56:21;;;;;;;12.77;9.52;;;;;20.80;101493.00;;;;9975160;29;21164;-81
2023/05/08 17:01:22;;;;;;;11.45;8.93;;;;;20.70;101479.00;;;;9964545;29;20224;-82
2023/05/08 17:06:24;;;;;;;12.77;10.05;;;;;20.60;101467.00;;;;9986824;29;20255;-81
2023/05/08 17:11:25;;;;;;;13.88;10.77;;;;;20.30;101463.00;;;;9983789;29;20224;-81
2023/05/08 17:16:27;;;;;;;11.15;9.95;;;;;20.00;101464.00;;;;9968922;29;20224;-82
2023/05/08 17:21:30;;;;;;;12.23;9.75;;;;;19.80;101483.00;;;;9952113;29;20831;-82
2023/05/08 17:26:33;;;;;;;14.55;9.85;;;;;19.40;101489.00;;;;9962112;29;20264;-78
2023/05/08 17:31:34;;;;;;;12.75;10.45;;;;;19.20;101483.00;;;;9968411;29;20243;-78
2023/05/08 17:36:35;;;;;;;17.48;12.07;;;;;18.90;101480.00;;;;9962078;29;20316;-78
2023/05/08 17:41:37;;;;;;;16.83;12.50;;;;;18.70;101474.00;;;;9950099;29;20846;-77
2023/05/08 17:46:38;;;;;;;15.13;11.35;;;;;18.60;101461.00;;;;9951759;29;20252;-77
2023/05/08 17:51:40;;;;;;;22.52;14.20;;;;;18.50;101464.00;;;;9965483;29;20333;-77
2023/05/08 17:56:41;;;;;;;15.60;11.65;;;;;18.50;101453.00;;;;9952858;29;20312;-76
2023/05/08 18:01:43;;;;;;;20.70;13.10;;;;;18.30;101457.00;;;;9967816;29;20238;-77
2023/05/08 18:06:46;;;;;;;14.70;11.82;;;;;18.30;101464.00;;;;9970197;29;20340;-80
2023/05/08 18:11:48;;;;;;;13.82;11.07;;;;;18.30;101465.00;;;;9976344;29;20568;-81
2023/05/08 18:16:49;;;;;;;15.55;11.10;;;;;18.20;101465.00;;;;9942820;29;20220;-77
2023/05/08 18:21:50;;;;;;;13.63;10.27;;;;;18.20;101461.00;;;;9971172;29;20600;-79
2023/05/08 18:26:51;;;;;;;13.88;9.93;;;;;18.00;101477.00;;;;9956480;29;20247;-79
2023/05/08 18:31:53;;;;;;;11.35;9.55;;;;;17.70;101471.00;;;;9944827;29;20224;-77
2023/05/08 18:36:54;;;;;;;11.68;9.27;;;;;17.40;101467.00;;;;9932591;29;20231;-79
2023/05/08 18:41:59;;;;;;;13.82;9.02;;;;;17.30;101486.00;;;;9965154;29;21975;-78
2023/05/08 18:47:01;;;;;;;11.48;9.40;;;;;17.20;101477.00;;;;9970817;29;20255;-81
2023/05/08 18:52:02;;;;;;;13.73;9.25;;;;;17.00;101482.00;;;;9955694;29;20317;-78
2023/05/08 18:57:03;;;;;;;13.02;9.63;;;;;17.00;101488.00;;;;9951264;29;20706;-82
2023/05/08 19:02:05;;;;;;;13.38;9.63;;;;;16.80;101489.00;;;;9959377;29;20232;-81
2023/05/08 19:07:06;;;;;;;12.52;8.73;;;;;16.80;101488.00;;;;9971583;29;20236;-82
2023/05/08 19:12:07;;;;;;;10.70;7.85;;;;;16.70;101491.00;;;;9961814;29;21013;-80
2023/05/08 19:17:09;;;;;;;13.48;8.95;;;;;16.60;101483.00;;;;9956701;29;20484;-79
2023/05/08 19:22:10;;;;;;;11.40;8.02;;;;;16.60;101486.00;;;;9944879;29;20312;-82
2023/05/08 19:27:11;;;;;;;11.50;7.85;;;;;16.50;101491.00;;;;9962046;29;20252;-82
2023/05/08 19:32:13;;;;;;;13.63;8.75;;;;;16.50;101502.00;;;;9947314;29;20252;-78
2023/05/08 19:37:14;;;;;;;10.32;7.47;;;;;16.40;101507.00;;;;9948491;29;20316;-79
2023/05/08 19:42:15;;;;;;;12.15;7.65;;;;;16.30;101503.00;;;;9967073;29;20217;-77
2023/05/08 19:47:17;;;;;;;9.43;6.43;;;;;16.20;101510.00;;;;9967325;29;20264;-77
2023/05/08 19:52:18;;;;;;;10.23;6.88;;;;;16.10;101517.00;;;;9960722;29;20262;-77
2023/05/08 19:57:20;;;;;;;13.80;7.57;;;;;16.00;101516.00;;;;9974739;29;20680;-78
2023/05/08 20:02:21;;;;;;;12.45;7.53;;;;;15.90;101522.00;;;;9964712;29;20889;-80
2023/05/08 20:07:23;;;;;;;12.25;7.72;;;;;15.80;101519.00;;;;9968673;29;20235;-77
2023/05/08 20:12:24;;;;;;;12.18;7.68;;;;;15.80;101515.00;;;;9946513;29;20968;-77
2023/05/08 20:17:25;;;;;;;10.45;6.75;;;;;15.70;101509.00;;;;9952227;29;20324;-77
2023/05/08 20:22:27;;;;;;;9.32;6.97;;;;;15.60;101515.00;;;;9967155;29;20683;-82
2023/05/08 20:27:28;;;;;;;10.13;6.78;;;;;15.50;101502.00;;;;9960915;29;21034;-79
2023/05/08 20:32:30;;;;;;;12.65;7.50;;;;;15.50;101501.00;;;;9974984;29;20355;-79
2023/05/08 20:37:31;;;;;;;13.80;7.03;;;;;15.40;101495.00;;;;9985494;29;20240;-77
2023/05/08 20:42:33;;;;;;;12.00;6.72;;;;;15.30;101495.00;;;;9964672;29;20921;-77
2023/05/08 20:47:35;;;;;;;9.73;6.47;;;;;15.30;101490.00;;;;9979101;29;20240;-76
2023/05/08 20:52:36;;;;;;;12.30;6.88;;;;;15.20;101480.00;;;;9975349;29;20244;-77
2023/05/08 20:57:39;;;;;;;9.70;7.30;;;;;15.20;101465.00;;;;9951713;29;20213;-79
2023/05/08 21:02:41;;;;;;;10.50;7.38;;;;;15.20;101459.00;;;;9978644;29;20260;-79
2023/05/08 21:07:42;;;;;;;14.43;9.02;;;;;15.20;101456.00;;;;9940880;29;20248;-77
2023/05/08 21:12:44;;;;;;;16.30;10.90;;;;;15.10;101456.00;;;;9976466;29;20236;-81
2023/05/08 21:17:45;;;;;;;23.23;13.10;;;;;15.10;101455.00;;;;9941097;29;20661;-77
2023/05/08 21:22:47;;;;;;;23.93;13.40;;;;;15.10;101442.00;;;;9968776;29;20922;-78
2023/05/08 21:27:49;;;;;;;26.85;14.88;;;;;15.00;101442.00;;;;9952549;29;20278;-78
2023/05/08 21:32:50;;;;;;;22.02;13.40;;;;;15.00;101434.00;;;;9958413;29;20247;-81
2023/05/08 21:37:51;;;;;;;21.50;14.10;;;;;15.00;101431.00;;;;9984599;29;20225;-81
2023/05/08 21:42:55;;;;;;;28.03;15.50;;;;;14.90;101407.00;;;;9968344;29;20225;-82
2023/05/08 21:47:57;;;;;;;29.50;15.65;;;;;14.90;101407.00;;;;9966935;29;20410;-81
2023/05/08 21:52:59;;;;;;;28.05;15.32;;;;;14.80;101412.00;;;;9983199;29;20247;-80
2023/05/08 21:58:00;;;;;;;25.47;14.00;;;;;14.70;101403.00;;;;9953851;29;20306;-80
2023/05/08 22:03:01;;;;;;;25.50;14.43;;;;;14.70;101390.00;;;;9976968;29;20792;-77
2023/05/08 22:08:03;;;;;;;21.30;12.70;;;;;14.70;101387.00;;;;9952340;29;20255;-77
2023/05/08 22:13:06;;;;;;;19.53;11.87;;;;;14.70;101385.00;;;;9969137;29;20223;-78
2023/05/08 22:18:07;;;;;;;15.95;10.98;;;;;14.70;101363.00;;;;9977485;29;20209;-81
2023/05/08 22:23:09;;;;;;;20.63;10.53;;;;;14.70;101359.00;;;;9983424;29;20235;-81
2023/05/08 22:28:10;;;;;;;16.57;11.00;;;;;14.60;101350.00;;;;9952499;29;20239;-80
2023/05/08 22:33:11;;;;;;;15.37;9.73;;;;;14.60;101341.00;;;;9951278;29;20231;-82
2023/05/08 22:38:13;;;;;;;17.30;10.48;;;;;14.60;101336.00;;;;9968930;29;20240;-82
2023/05/08 22:43:14;;;;;;;15.70;9.63;;;;;14.50;101331.00;;;;9987687;29;21646;-82
2023/05/08 22:48:15;;;;;;;14.33;9.80;;;;;14.50;101320.00;;;;9965141;29;20726;-81
2023/05/08 22:53:17;;;;;;;13.40;9.30;;;;;14.40;101322.00;;;;9966293;29;20244;-81
2023/05/08 22:58:18;;;;;;;13.00;10.52;;;;;14.40;101317.00;;;;9968444;29;20488;-80
2023/05/08 23:03:20;;;;;;;15.17;10.20;;;;;14.40;101310.00;;;;9969027;29;21493;-80
2023/05/08 23:08:21;;;;;;;15.83;8.83;;;;;14.40;101303.00;;;;9968003;29;20287;-81
2023/05/08 23:13:22;;;;;;;10.33;8.77;;;;;14.40;101301.00;;;;9965117;29;20300;-80
2023/05/08 23:18:24;;;;;;;11.83;9.47;;;;;14.40;101304.00;;;;9951835;29;20224;-80
2023/05/08 23:23:25;;;;;;;11.70;8.03;;;;;14.40;101296.00;;;;9973277;29;20217;-77
2023/05/08 23:28:26;;;;;;;10.90;8.30;;;;;14.40;101288.00;;;;9971740;29;21260;-76
2023/05/08 23:33:28;;;;;;;11.67;9.03;;;;;14.40;101287.00;;;;9966107;29;20221;-76
2023/05/08 23:38:29;;;;;;;10.67;7.63;;;;;14.30;101277.00;;;;9964359;29;20220;-76
2023/05/08 23:43:31;;;;;;;11.97;8.63;;;;;14.30;101273.00;;;;9967000;29;20216;-77
2023/05/08 23:48:33;;;;;;;11.00;8.83;;;;;14.30;101259.00;;;;9969301;29;20301;-76
2023/05/08 23:53:34;;;;;;;10.33;8.30;;;;;14.30;101255.00;;;;9964983;29;20288;-76
2023/05/08 23:58:35;;;;;;;14.40;7.80;;;;;14.20;101258.00;;;;9965601;29;21445;-76
